createdAt,value
2019-04-21T00:02:27.676Z,10.00
2019-04-21T00:05:12.815Z,10.30
2019-04-21T00:07:46.985Z,10.30
2019-04-21T00:10:12.523Z,9.07
2019-04-21T00:12:40.611Z,10.13
2019-04-21T00:15:07.262Z,9.20
2019-04-21T00:17:29.879Z,9.83
2019-04-21T00:20:15.755Z,9.33
2019-04-21T00:22:44.310Z,8.70
2019-04-21T00:25:18.103Z,9.63
2019-04-21T00:27:51.601Z,9.60
2019-04-21T00:30:32.862Z,8.83
2019-04-21T00:32:51.566Z,9.30
2019-04-21T00:35:11.730Z,9.33
2019-04-21T00:38:04.833Z,9.00
2019-04-21T00:40:30.240Z,8.27
2019-04-21T00:43:02.492Z,8.57
2019-04-21T00:45:23.414Z,8.63
2019-04-21T00:48:05.686Z,8.10
2019-04-21T00:50:41.942Z,8.33
2019-04-21T00:53:10.399Z,8.43
2019-04-21T00:55:53.437Z,8.53
2019-04-21T00:58:23.655Z,9.20
2019-04-21T01:00:51.217Z,8.87
2019-04-21T01:03:26.085Z,8.40
2019-04-21T01:06:13.062Z,8.27
2019-04-21T01:08:25.112Z,7.17
2019-04-21T01:10:49.268Z,8.20
2019-04-21T01:13:27.381Z,7.97
2019-04-21T01:15:59.548Z,7.70
2019-04-21T01:18:31.372Z,8.37
2019-04-21T01:20:37.752Z,8.47
2019-04-21T01:23:08.400Z,8.03
2019-04-21T01:25:46.068Z,7.10
2019-04-21T01:28:27.171Z,8.50
2019-04-21T01:30:56.889Z,7.90
2019-04-21T01:33:36.243Z,7.63
2019-04-21T01:35:58.344Z,7.27
2019-04-21T01:38:34.229Z,7.10
2019-04-21T01:41:08.560Z,7.57
2019-04-21T01:43:33.317Z,7.47
2019-04-21T01:46:06.678Z,7.70
2019-04-21T01:48:34.467Z,8.03
2019-04-21T01:51:01.569Z,8.07
2019-04-21T01:53:48.296Z,6.87
2019-04-21T01:56:51.233Z,6.53
2019-04-21T01:59:12.852Z,7.30
2019-04-21T02:02:02.375Z,6.87
2019-04-21T02:04:36.709Z,6.93
2019-04-21T02:07:03.090Z,6.63
2019-04-21T02:09:38.414Z,7.23
2019-04-21T02:12:10.527Z,6.33
2019-04-21T02:14:45.649Z,6.63
2019-04-21T02:17:13.289Z,7.60
2019-04-21T02:19:37.849Z,7.07
2019-04-21T02:22:04.897Z,7.00
2019-04-21T02:24:49.914Z,6.90
2019-04-21T02:27:14.959Z,6.77
2019-04-21T02:29:48.757Z,7.07
2019-04-21T02:35:04.203Z,6.10
2019-04-21T02:37:44.574Z,6.67
2019-04-21T02:42:29.198Z,6.37
2019-04-21T02:45:03.921Z,6.70
2019-04-21T02:50:24.310Z,6.50
2019-04-21T02:52:35.614Z,6.73
2019-04-21T02:55:02.757Z,6.87
2019-04-21T02:57:39.563Z,6.83
2019-04-21T03:05:50.766Z,6.17
2019-04-21T03:08:29.046Z,6.27
2019-04-21T03:10:59.202Z,6.23
2019-04-21T03:13:29.754Z,6.40
2019-04-21T03:16:03.096Z,5.70
2019-04-21T03:21:00.285Z,6.47
2019-04-21T03:23:28.041Z,5.53
2019-04-21T03:26:04.991Z,6.50
2019-04-21T03:28:29.712Z,6.10
2019-04-21T03:31:19.610Z,5.40
2019-04-21T03:36:38.220Z,5.50
2019-04-21T03:41:04.696Z,5.80
2019-04-21T03:43:36.441Z,5.80
2019-04-21T03:46:26.590Z,5.83
2019-04-21T03:48:58.326Z,5.43
2019-04-21T03:51:13.817Z,5.40
2019-04-21T03:53:40.348Z,5.97
2019-04-21T03:56:44.508Z,5.50
2019-04-21T04:01:32.857Z,6.03
2019-04-21T04:04:22.451Z,5.67
2019-04-21T04:14:31.053Z,5.17
2019-04-21T04:17:06.449Z,6.30
2019-04-21T04:19:37.992Z,6.23
2019-04-21T04:22:04.023Z,6.00
2019-04-21T04:24:34.025Z,5.53
2019-04-21T04:27:07.881Z,6.10
2019-04-21T04:31:57.059Z,5.80
2019-04-21T04:34:40.438Z,5.83
2019-04-21T04:37:15.538Z,5.60
2019-04-21T04:40:10.703Z,5.87
2019-04-21T04:42:39.330Z,5.80
2019-04-21T04:47:32.855Z,5.90
2019-04-21T04:50:05.313Z,5.17
2019-04-21T04:52:40.051Z,5.20
2019-04-21T04:55:06.790Z,5.67
2019-04-21T04:57:55.335Z,5.37
2019-04-21T05:00:21.361Z,5.43
2019-04-21T05:10:18.560Z,4.73
2019-04-21T05:12:47.893Z,4.97
2019-04-21T05:15:12.634Z,5.03
2019-04-21T05:17:46.449Z,5.67
2019-04-21T05:20:18.567Z,5.20
2019-04-21T05:22:44.738Z,5.13
2019-04-21T05:25:08.667Z,5.30
2019-04-21T05:27:40.988Z,5.53
2019-04-21T05:30:29.607Z,4.30
2019-04-21T05:33:16.003Z,4.83
2019-04-21T05:35:49.006Z,5.87
2019-04-21T05:38:27.503Z,5.67
2019-04-21T05:40:52.396Z,5.07
2019-04-21T05:43:32.592Z,5.13
2019-04-21T05:46:04.824Z,4.87
2019-04-21T05:48:37.727Z,4.80
2019-04-21T05:51:03.559Z,5.77
2019-04-21T05:53:35.668Z,5.23
2019-04-21T05:56:09.956Z,5.10
2019-04-21T05:58:40.579Z,5.47
2019-04-21T06:06:20.477Z,6.27
2019-04-21T06:08:46.811Z,5.30
2019-04-21T06:11:18.670Z,5.90
2019-04-21T06:13:58.046Z,5.50
2019-04-21T06:16:21.678Z,5.67
2019-04-21T06:18:53.250Z,5.17
2019-04-21T06:21:21.916Z,5.27
2019-04-21T06:23:49.598Z,6.10
2019-04-21T06:29:09.091Z,7.93
2019-04-21T06:31:57.798Z,7.03
2019-04-21T06:34:02.082Z,5.93
2019-04-21T06:36:56.676Z,7.07
2019-04-21T06:39:23.746Z,5.60
2019-04-21T06:41:58.833Z,6.37
2019-04-21T06:44:23.262Z,6.67
2019-04-21T06:46:55.005Z,5.80
2019-04-21T06:49:25.147Z,6.10
2019-04-21T06:52:02.405Z,6.07
2019-04-21T06:54:28.483Z,6.73
2019-04-21T06:57:00.817Z,6.17
2019-04-21T06:59:29.398Z,5.93
2019-04-21T07:02:26.724Z,6.30
2019-04-21T07:04:31.779Z,6.43
2019-04-21T07:06:59.472Z,6.30
2019-04-21T07:09:31.104Z,6.47
2019-04-21T07:11:59.842Z,5.67
2019-04-21T07:14:32.021Z,7.07
2019-04-21T07:17:15.988Z,5.90
2019-04-21T07:19:41.896Z,6.17
2019-04-21T07:22:14.577Z,6.10
2019-04-21T07:24:37.127Z,5.63
2019-04-21T07:27:08.970Z,6.50
2019-04-21T07:29:50.671Z,6.93
2019-04-21T07:32:22.148Z,5.63
2019-04-21T07:34:46.134Z,5.63
2019-04-21T07:37:11.671Z,5.57
2019-04-21T07:39:45.158Z,5.77
2019-04-21T07:42:13.278Z,5.23
2019-04-21T07:45:05.328Z,5.43
2019-04-21T07:47:56.549Z,5.73
2019-04-21T07:50:35.169Z,6.23
2019-04-21T07:53:23.045Z,5.43
2019-04-21T07:55:43.179Z,6.17
2019-04-21T07:58:47.535Z,6.13
2019-04-21T08:01:12.252Z,6.10
2019-04-21T08:03:40.590Z,6.00
2019-04-21T08:06:19.326Z,5.30
2019-04-21T08:08:42.288Z,5.97
2019-04-21T08:11:10.949Z,7.10
2019-04-21T08:13:57.789Z,5.80
2019-04-21T08:16:20.703Z,5.37
2019-04-21T08:18:47.267Z,5.87
2019-04-21T08:21:11.104Z,5.50
2019-04-21T08:23:50.307Z,6.00
2019-04-21T08:26:17.549Z,6.33
2019-04-21T08:28:58.868Z,5.60
2019-04-21T08:31:25.890Z,5.80
2019-04-21T08:33:56.092Z,4.83
2019-04-21T08:36:32.548Z,5.80
2019-04-21T08:38:53.935Z,5.47
2019-04-21T08:41:28.173Z,5.50
2019-04-21T08:43:57.501Z,5.57
2019-04-21T08:46:36.308Z,5.87
2019-04-21T08:49:04.696Z,5.67
2019-04-21T08:54:02.395Z,6.10
2019-04-21T08:56:46.647Z,5.60
2019-04-21T08:59:36.357Z,5.07
2019-04-21T09:02:16.784Z,5.07
2019-04-21T09:04:46.566Z,4.40
2019-04-21T09:07:19.976Z,5.37
2019-04-21T09:09:46.795Z,4.63
2019-04-21T09:12:23.774Z,4.73
2019-04-21T09:14:50.657Z,4.67
2019-04-21T09:17:15.312Z,4.87
2019-04-21T09:20:13.970Z,4.77
2019-04-21T09:22:24.385Z,5.40
2019-04-21T09:25:09.364Z,4.47
2019-04-21T09:27:20.650Z,5.00
2019-04-21T09:29:44.847Z,5.20
2019-04-21T09:32:13.583Z,4.97
2019-04-21T09:34:43.770Z,4.90
2019-04-21T09:37:24.616Z,5.27
2019-04-21T09:39:46.711Z,4.53
2019-04-21T09:42:13.474Z,4.50
2019-04-21T09:44:45.762Z,4.40
2019-04-21T09:47:16.883Z,4.33
2019-04-21T09:49:45.212Z,4.80
2019-04-21T09:52:20.959Z,4.50
2019-04-21T09:54:55.225Z,4.93
2019-04-21T09:57:27.402Z,4.20
2019-04-21T09:59:55.782Z,4.33
2019-04-21T10:02:31.045Z,3.73
2019-04-21T10:04:50.186Z,4.13
2019-04-21T10:07:27.509Z,4.10
2019-04-21T10:09:50.605Z,3.77
2019-04-21T10:12:20.000Z,4.00
2019-04-21T10:14:49.525Z,3.97
2019-04-21T10:17:29.611Z,4.33
2019-04-21T10:19:59.110Z,4.67
2019-04-21T10:22:28.819Z,3.83
2019-04-21T10:24:58.548Z,3.70
2019-04-21T10:27:27.860Z,3.80
2019-04-21T10:29:58.183Z,4.17
2019-04-21T10:32:28.215Z,4.07
2019-04-21T10:34:59.091Z,4.00
2019-04-21T10:37:42.604Z,4.50
2019-04-21T10:40:00.119Z,4.33
2019-04-21T10:42:31.137Z,4.50
2019-04-21T10:45:01.096Z,4.30
2019-04-21T10:47:31.291Z,3.60
2019-04-21T10:50:00.621Z,4.23
2019-04-21T10:52:48.983Z,3.90
2019-04-21T10:55:38.974Z,3.23
2019-04-21T10:58:10.931Z,3.90
2019-04-21T11:00:41.927Z,4.10
2019-04-21T11:03:48.959Z,3.20
2019-04-21T11:06:21.039Z,3.80
2019-04-21T11:08:55.151Z,3.57
2019-04-21T11:11:21.805Z,3.53
2019-04-21T11:13:52.534Z,3.13
2019-04-21T11:16:23.386Z,3.63
2019-04-21T11:18:53.687Z,3.30
2019-04-21T11:21:23.126Z,3.07
2019-04-21T11:23:52.367Z,3.43
2019-04-21T11:26:22.074Z,3.10
2019-04-21T11:28:52.658Z,3.07
2019-04-21T11:31:22.922Z,3.27
2019-04-21T11:33:53.330Z,2.83
2019-04-21T11:36:22.858Z,3.50
2019-04-21T11:39:08.679Z,3.53
2019-04-21T11:41:27.891Z,2.97
2019-04-21T11:43:57.330Z,3.40
2019-04-21T11:46:26.856Z,3.37
2019-04-21T11:48:56.201Z,3.20
2019-04-21T11:51:26.879Z,3.50
2019-04-21T11:53:56.936Z,3.47
2019-04-21T11:56:27.229Z,3.40
2019-04-21T11:58:57.789Z,3.10
2019-04-21T12:01:27.634Z,3.07
2019-04-21T12:03:57.995Z,3.50
2019-04-21T12:06:32.182Z,2.87
2019-04-21T12:09:01.288Z,3.33
2019-04-21T12:11:29.440Z,2.97
2019-04-21T12:14:00.309Z,2.97
2019-04-21T12:16:30.816Z,3.37
2019-04-21T12:19:00.928Z,3.33
2019-04-21T12:21:46.135Z,3.13
2019-04-21T12:24:01.131Z,2.80
2019-04-21T12:26:31.718Z,2.80
2019-04-21T12:29:01.840Z,2.87
2019-04-21T12:31:49.709Z,2.60
2019-04-21T12:34:19.463Z,2.93
2019-04-21T12:36:48.811Z,3.13
2019-04-21T12:39:18.767Z,2.50
2019-04-21T12:41:50.860Z,2.67
2019-04-21T12:44:20.465Z,3.03
2019-04-21T12:46:50.054Z,3.23
2019-04-21T12:49:20.114Z,2.83
2019-04-21T12:51:49.603Z,3.13
2019-04-21T12:54:19.637Z,3.33
2019-04-21T12:56:49.581Z,3.03
2019-04-21T12:59:19.120Z,2.23
2019-04-21T13:01:48.655Z,2.80
2019-04-21T13:04:17.964Z,2.90
2019-04-21T13:06:47.606Z,3.07
2019-04-21T13:09:20.315Z,3.00
2019-04-21T13:11:48.892Z,2.53
2019-04-21T13:14:19.833Z,2.80
2019-04-21T13:16:49.678Z,2.90
2019-04-21T13:19:19.294Z,2.57
2019-04-21T13:21:49.863Z,2.67
2019-04-21T13:24:19.952Z,2.40
2019-04-21T13:26:55.553Z,2.73
2019-04-21T13:29:20.518Z,2.63
2019-04-21T13:31:50.142Z,2.57
2019-04-21T13:34:20.028Z,2.37
2019-04-21T13:36:49.890Z,2.60
2019-04-21T13:40:06.575Z,2.50
2019-04-21T13:42:18.426Z,2.37
2019-04-21T13:44:41.362Z,2.43
2019-04-21T13:47:10.754Z,2.40
2019-04-21T13:49:41.393Z,2.83
2019-04-21T13:52:11.089Z,2.03
2019-04-21T13:54:40.803Z,2.03
2019-04-21T13:57:10.473Z,2.43
2019-04-21T13:59:40.431Z,2.60
2019-04-21T14:02:11.142Z,2.50
2019-04-21T14:04:41.253Z,2.27
2019-04-21T14:07:12.095Z,2.47
2019-04-21T14:09:49.997Z,2.77
2019-04-21T14:12:13.629Z,2.23
2019-04-21T14:14:44.105Z,2.50
2019-04-21T14:17:15.008Z,2.50
2019-04-21T14:19:45.589Z,2.27
2019-04-21T14:22:18.019Z,2.40
2019-04-21T14:24:48.008Z,1.90
2019-04-21T14:27:18.504Z,2.43
2019-04-21T14:29:49.121Z,2.20
2019-04-21T14:32:20.140Z,2.20
2019-04-21T14:34:50.708Z,2.73
2019-04-21T14:37:20.659Z,2.23
2019-04-21T14:39:57.827Z,2.07
2019-04-21T14:42:22.109Z,2.17
2019-04-21T14:44:51.738Z,1.90
2019-04-21T14:47:41.861Z,2.30
2019-04-21T14:50:40.010Z,2.17
2019-04-21T14:53:17.861Z,2.30
2019-04-21T14:55:49.134Z,2.90
2019-04-21T14:58:19.144Z,1.93
2019-04-21T15:01:06.162Z,2.00
2019-04-21T15:03:35.349Z,2.00
2019-04-21T15:06:05.514Z,2.10
2019-04-21T15:08:35.328Z,2.47
2019-04-21T15:11:05.341Z,2.47
2019-04-21T15:13:35.510Z,2.10
2019-04-21T15:16:06.778Z,1.87
2019-04-21T15:18:36.807Z,1.80
2019-04-21T15:21:07.635Z,1.93
2019-04-21T15:23:38.200Z,1.87
2019-04-21T15:26:08.295Z,2.10
2019-04-21T15:28:40.491Z,2.30
2019-04-21T15:31:14.814Z,1.70
2019-04-21T15:33:41.114Z,2.30
2019-04-21T15:36:11.301Z,1.80
2019-04-21T15:38:40.656Z,2.07
2019-04-21T15:41:10.858Z,2.30
2019-04-21T15:43:40.590Z,2.23
2019-04-21T15:46:10.967Z,1.83
2019-04-21T15:48:41.200Z,2.07
2019-04-21T15:51:11.099Z,2.17
2019-04-21T15:53:41.805Z,1.87
2019-04-21T15:56:15.346Z,2.23
2019-04-21T15:59:02.155Z,2.03
2019-04-21T16:01:38.934Z,2.07
2019-04-21T16:04:08.389Z,2.00
2019-04-21T16:06:37.606Z,2.13
2019-04-21T16:09:14.902Z,2.30
2019-04-21T16:11:40.111Z,2.10
2019-04-21T16:14:10.186Z,2.10
2019-04-21T16:16:41.006Z,2.40
2019-04-21T16:19:10.360Z,2.40
2019-04-21T16:21:42.215Z,2.30
2019-04-21T16:24:11.808Z,2.07
2019-04-21T16:26:42.681Z,1.80
2019-04-21T16:29:13.218Z,2.00
2019-04-21T16:31:42.764Z,2.27
2019-04-21T16:34:11.953Z,2.00
2019-04-21T16:36:41.382Z,1.90
2019-04-21T16:39:11.540Z,1.90
2019-04-21T16:41:40.727Z,2.43
2019-04-21T16:44:11.194Z,2.37
2019-04-21T16:46:41.324Z,2.50
2019-04-21T16:49:11.796Z,2.47
2019-04-21T16:51:42.278Z,2.27
2019-04-21T16:54:20.258Z,2.20
2019-04-21T16:56:54.695Z,2.47
2019-04-21T16:59:32.724Z,2.53
2019-04-21T17:02:02.734Z,2.07
2019-04-21T17:04:32.201Z,2.17
2019-04-21T17:07:02.936Z,2.13
2019-04-21T17:09:32.640Z,2.30
2019-04-21T17:12:05.888Z,2.13
2019-04-21T17:14:49.558Z,2.43
2019-04-21T17:17:27.236Z,2.40
2019-04-21T17:19:41.836Z,2.00
2019-04-21T17:22:05.895Z,1.97
2019-04-21T17:24:35.227Z,2.00
2019-04-21T17:27:05.129Z,2.30
2019-04-21T17:29:34.606Z,2.40
2019-04-21T17:32:06.541Z,1.90
2019-04-21T17:34:36.241Z,2.30
2019-04-21T17:37:05.657Z,2.20
2019-04-21T17:39:34.862Z,2.13
2019-04-21T17:42:14.177Z,2.43
2019-04-21T17:44:37.340Z,2.40
2019-04-21T17:47:20.073Z,2.20
2019-04-21T17:49:39.156Z,2.43
2019-04-21T17:52:36.716Z,2.30
2019-04-21T17:55:11.251Z,2.57
2019-04-21T17:57:53.016Z,2.47
2019-04-21T18:00:36.391Z,3.27
2019-04-21T18:02:59.027Z,2.40
2019-04-21T18:05:27.243Z,2.97
2019-04-21T18:07:54.744Z,3.80
2019-04-21T18:10:25.687Z,5.00
2019-04-21T18:12:52.315Z,5.60
2019-04-21T18:15:29.057Z,3.27
2019-04-21T18:17:44.849Z,3.40
2019-04-21T18:20:15.790Z,3.70
2019-04-21T18:22:54.680Z,3.70
2019-04-21T18:25:36.170Z,3.47
2019-04-21T18:27:56.560Z,4.93
2019-04-21T18:31:16.535Z,5.33
2019-04-21T18:34:08.774Z,7.03
2019-04-21T18:36:45.449Z,8.73
2019-04-21T18:39:46.394Z,7.57
2019-04-21T18:42:26.376Z,8.13
2019-04-21T18:45:40.301Z,8.00
2019-04-21T18:48:02.680Z,5.57
2019-04-21T18:51:02.839Z,4.97
2019-04-21T18:53:47.711Z,4.87
2019-04-21T18:56:09.697Z,5.40
2019-04-21T18:58:38.198Z,5.67
2019-04-21T19:01:16.104Z,6.67
2019-04-21T19:03:43.006Z,6.50
2019-04-21T19:06:16.427Z,5.73
2019-04-21T19:08:59.257Z,5.73
2019-04-21T19:11:28.049Z,6.03
2019-04-21T19:14:36.295Z,6.27
2019-04-21T19:17:04.328Z,5.90
2019-04-21T19:19:41.175Z,5.50
2019-04-21T19:21:55.233Z,5.60
2019-04-21T19:24:29.125Z,6.17
2019-04-21T19:26:59.363Z,5.63
2019-04-21T19:29:28.864Z,4.97
2019-04-21T19:31:54.733Z,5.67
2019-04-21T19:34:18.813Z,5.37
2019-04-21T19:36:49.036Z,5.67
2019-04-21T19:39:23.276Z,5.27
2019-04-21T19:41:58.550Z,6.03
2019-04-21T19:44:33.987Z,6.00
2019-04-21T19:47:03.859Z,5.40
2019-04-21T19:49:43.682Z,6.10
2019-04-21T19:51:56.261Z,5.33
2019-04-21T19:54:29.971Z,4.97
2019-04-21T19:56:53.392Z,5.17
2019-04-21T19:59:32.439Z,5.97
2019-04-21T20:01:58.354Z,5.37
2019-04-21T20:04:34.437Z,6.00
2019-04-21T20:07:19.212Z,5.63
2019-04-21T20:09:50.030Z,4.47
2019-04-21T20:12:28.845Z,5.87
2019-04-21T20:14:59.456Z,6.10
2019-04-21T20:17:18.858Z,5.37
2019-04-21T20:19:38.384Z,5.43
2019-04-21T20:22:09.364Z,5.33
2019-04-21T20:24:49.894Z,5.40
2019-04-21T20:27:17.610Z,4.80
2019-04-21T20:30:02.625Z,5.83
2019-04-21T20:32:36.627Z,5.37
2019-04-21T20:35:07.029Z,5.07
2019-04-21T20:37:32.101Z,5.73
2019-04-21T20:39:54.945Z,6.33
2019-04-21T20:42:28.118Z,5.10
2019-04-21T20:45:23.069Z,5.50
2019-04-21T20:47:29.401Z,5.00
2019-04-21T20:50:02.992Z,5.50
2019-04-21T20:52:41.792Z,6.00
2019-04-21T20:55:04.890Z,5.27
2019-04-21T20:57:37.873Z,5.20
2019-04-21T21:00:12.301Z,5.67
2019-04-21T21:02:47.886Z,4.83
2019-04-21T21:05:10.493Z,5.47
2019-04-21T21:07:50.516Z,5.50
2019-04-21T21:10:16.637Z,5.07
2019-04-21T21:13:00.975Z,4.57
2019-04-21T21:15:10.067Z,5.20
2019-04-21T21:17:59.710Z,5.03
2019-04-21T21:20:24.841Z,4.90
2019-04-21T21:22:50.873Z,5.27
2019-04-21T21:25:33.795Z,5.27
2019-04-21T21:27:49.493Z,5.27
2019-04-21T21:30:24.657Z,6.03
2019-04-21T21:32:56.350Z,5.10
2019-04-21T21:35:21.532Z,5.37
2019-04-21T21:38:03.595Z,5.57
2019-04-21T21:40:30.621Z,5.50
2019-04-21T21:42:45.350Z,5.60
2019-04-21T21:45:18.363Z,4.90
2019-04-21T21:48:01.219Z,5.43
2019-04-21T21:50:26.069Z,4.33
2019-04-21T21:52:59.876Z,5.33
2019-04-21T21:55:19.394Z,4.60
2019-04-21T21:57:52.956Z,4.50
2019-04-21T22:00:21.792Z,5.37
2019-04-21T22:02:54.655Z,4.20
2019-04-21T22:05:26.036Z,4.50
2019-04-21T22:07:54.215Z,4.43
2019-04-21T22:10:23.542Z,4.53
2019-04-21T22:13:01.014Z,4.30
2019-04-21T22:15:26.803Z,4.70
2019-04-21T22:18:22.246Z,4.37
2019-04-21T22:20:41.945Z,4.83
2019-04-21T22:23:02.225Z,4.33
2019-04-21T22:25:33.335Z,4.90
2019-04-21T22:28:02.041Z,4.47
2019-04-21T22:30:37.042Z,4.33
2019-04-21T22:33:08.286Z,4.53
2019-04-21T22:35:41.815Z,3.73
2019-04-21T22:38:19.105Z,3.90
2019-04-21T22:40:50.639Z,4.23
2019-04-21T22:43:18.505Z,4.87
2019-04-21T22:45:37.597Z,4.40
2019-04-21T22:48:15.585Z,4.10
2019-04-21T22:50:40.374Z,4.47
2019-04-21T22:53:11.732Z,4.13
2019-04-21T22:55:41.016Z,3.73
2019-04-21T22:58:11.455Z,3.87
2019-04-21T23:00:46.015Z,3.80
2019-04-21T23:03:17.385Z,4.57
2019-04-21T23:05:45.140Z,4.07
2019-04-21T23:08:15.056Z,4.03
2019-04-21T23:10:51.172Z,4.00
2019-04-21T23:13:19.530Z,4.13
2019-04-21T23:15:53.217Z,4.10
2019-04-21T23:18:30.625Z,3.70
2019-04-21T23:21:06.256Z,4.40
2019-04-21T23:23:39.796Z,3.83
2019-04-21T23:26:07.550Z,4.17
2019-04-21T23:28:40.555Z,4.20
2019-04-21T23:31:11.164Z,3.53
2019-04-21T23:33:23.899Z,3.73
2019-04-21T23:36:02.650Z,4.23
2019-04-21T23:38:30.276Z,3.90
2019-04-21T23:40:59.881Z,4.27
2019-04-21T23:43:29.269Z,3.70
2019-04-21T23:45:57.305Z,3.97
2019-04-21T23:48:39.152Z,4.17
2019-04-21T23:51:14.379Z,3.73
2019-04-21T23:53:29.276Z,4.40
2019-04-21T23:55:59.217Z,3.73
2019-04-21T23:58:32.637Z,3.83
